Time;durP1;ratioP1;P1;durP2;ratioP2;P2;SDS_P1;SDS_P2;PMS_P1;PMS_P2;Temp;Humidity;BMP_temperature;BMP_pressure;BME280_temperature;BME280_humidity;BME280_pressure;Samples;Min_cycle;Max_cycle;Signal;HPM_P1;HPM_P2
2019/07/13 00:00:28;;;;;;;4;3.2;;;;;;;;;;;;;
2019/07/13 00:02:52;;;;;;;4.4;3.2;;;;;;;;;;;;;
2019/07/13 00:05:21;;;;;;;5.3;3.5;;;;;;;;;;;;;
2019/07/13 00:07:43;;;;;;;6.8;3.8;;;;;;;;;;;;;
2019/07/13 00:10:09;;;;;;;4.6;3.1;;;;;;;;;;;;;
2019/07/13 00:12:35;;;;;;;4;3;;;;;;;;;;;;;
2019/07/13 00:14:59;;;;;;;5.7;3.7;;;;;;;;;;;;;
2019/07/13 00:17:26;;;;;;;7;4.4;;;;;;;;;;;;;
2019/07/13 00:19:50;;;;;;;5.1;3.5;;;;;;;;;;;;;
2019/07/13 00:22:14;;;;;;;5.4;3.1;;;;;;;;;;;;;
2019/07/13 00:24:42;;;;;;;4.7;3.9;;;;;;;;;;;;;
2019/07/13 00:27:08;;;;;;;4.9;4;;;;;;;;;;;;;
2019/07/13 00:29:41;;;;;;;5.9;4.3;;;;;;;;;;;;;
2019/07/13 00:32:03;;;;;;;6.3;5.2;;;;;;;;;;;;;
2019/07/13 00:34:28;;;;;;;6;4.2;;;;;;;;;;;;;
2019/07/13 00:36:54;;;;;;;6.6;4.2;;;;;;;;;;;;;
2019/07/13 00:39:19;;;;;;;6.4;4.3;;;;;;;;;;;;;
2019/07/13 00:41:44;;;;;;;6.2;3.8;;;;;;;;;;;;;
2019/07/13 00:44:09;;;;;;;5.8;4;;;;;;;;;;;;;
2019/07/13 00:46:38;;;;;;;6.6;4.3;;;;;;;;;;;;;
2019/07/13 00:49:00;;;;;;;5.1;3.9;;;;;;;;;;;;;
2019/07/13 00:51:26;;;;;;;6.7;3.8;;;;;;;;;;;;;
2019/07/13 00:53:49;;;;;;;7;4.2;;;;;;;;;;;;;
2019/07/13 00:56:16;;;;;;;6;4.4;;;;;;;;;;;;;
2019/07/13 00:58:46;;;;;;;5.5;4.6;;;;;;;;;;;;;
2019/07/13 01:01:06;;;;;;;6;4.7;;;;;;;;;;;;;
2019/07/13 01:03:30;;;;;;;6.3;5.2;;;;;;;;;;;;;
2019/07/13 01:05:56;;;;;;;4.3;3.9;;;;;;;;;;;;;
2019/07/13 01:08:19;;;;;;;4.7;3.7;;;;;;;;;;;;;
2019/07/13 01:10:46;;;;;;;5.3;4;;;;;;;;;;;;;
2019/07/13 01:13:10;;;;;;;6.6;4.1;;;;;;;;;;;;;
2019/07/13 01:15:35;;;;;;;5.1;4.6;;;;;;;;;;;;;
2019/07/13 01:18:04;;;;;;;6;4.7;;;;;;;;;;;;;
2019/07/13 01:20:25;;;;;;;5.2;4.5;;;;;;;;;;;;;
2019/07/13 01:22:50;;;;;;;5.7;4.4;;;;;;;;;;;;;
2019/07/13 01:25:24;;;;;;;4.9;4.4;;;;;;;;;;;;;
2019/07/13 01:27:45;;;;;;;5;4;;;;;;;;;;;;;
2019/07/13 01:30:07;;;;;;;6.1;3.7;;;;;;;;;;;;;
2019/07/13 01:32:31;;;;;;;5.3;4.8;;;;;;;;;;;;;
2019/07/13 01:34:56;;;;;;;5.5;3.8;;;;;;;;;;;;;
2019/07/13 01:37:25;;;;;;;4.5;3.5;;;;;;;;;;;;;
2019/07/13 01:39:50;;;;;;;6.6;4.3;;;;;;;;;;;;;
2019/07/13 01:42:12;;;;;;;6.1;4.6;;;;;;;;;;;;;
2019/07/13 01:44:40;;;;;;;6.2;4.4;;;;;;;;;;;;;
2019/07/13 01:47:03;;;;;;;4.6;3.5;;;;;;;;;;;;;
2019/07/13 01:49:28;;;;;;;3.9;3.2;;;;;;;;;;;;;
2019/07/13 01:51:53;;;;;;;7.3;3.7;;;;;;;;;;;;;
2019/07/13 01:54:18;;;;;;;3.9;2.8;;;;;;;;;;;;;
2019/07/13 01:56:48;;;;;;;4.3;3.2;;;;;;;;;;;;;
2019/07/13 01:59:09;;;;;;;6.8;3.4;;;;;;;;;;;;;
2019/07/13 02:01:34;;;;;;;4.2;3.3;;;;;;;;;;;;;
2019/07/13 02:03:59;;;;;;;5.1;3.6;;;;;;;;;;;;;
2019/07/13 02:06:26;;;;;;;6.3;4.6;;;;;;;;;;;;;
2019/07/13 02:08:50;;;;;;;5.6;4.4;;;;;;;;;;;;;
2019/07/13 02:11:14;;;;;;;7.5;4.8;;;;;;;;;;;;;
2019/07/13 02:13:40;;;;;;;7.2;5.7;;;;;;;;;;;;;
2019/07/13 02:16:08;;;;;;;10.7;5.9;;;;;;;;;;;;;
2019/07/13 02:18:31;;;;;;;5.2;3.6;;;;;;;;;;;;;
2019/07/13 02:20:54;;;;;;;7.8;3.4;;;;;;;;;;;;;
2019/07/13 02:23:20;;;;;;;6.3;3.6;;;;;;;;;;;;;
2019/07/13 02:25:44;;;;;;;7;3.7;;;;;;;;;;;;;
2019/07/13 02:28:10;;;;;;;6;4.4;;;;;;;;;;;;;
2019/07/13 02:30:36;;;;;;;5.4;3.5;;;;;;;;;;;;;
2019/07/13 02:33:00;;;;;;;4.5;3.2;;;;;;;;;;;;;
2019/07/13 02:35:29;;;;;;;4.9;3.5;;;;;;;;;;;;;
2019/07/13 02:37:51;;;;;;;4;3.1;;;;;;;;;;;;;
2019/07/13 02:40:16;;;;;;;5.1;3.4;;;;;;;;;;;;;
2019/07/13 02:42:40;;;;;;;3.8;2.7;;;;;;;;;;;;;
2019/07/13 02:45:09;;;;;;;3.2;2.3;;;;;;;;;;;;;
2019/07/13 02:47:31;;;;;;;2.6;1.9;;;;;;;;;;;;;
2019/07/13 02:49:56;;;;;;;3.1;2.2;;;;;;;;;;;;;
2019/07/13 02:52:22;;;;;;;3.2;2.2;;;;;;;;;;;;;
2019/07/13 02:54:46;;;;;;;5.8;3.1;;;;;;;;;;;;;
2019/07/13 02:57:15;;;;;;;5.1;3.2;;;;;;;;;;;;;
2019/07/13 02:59:37;;;;;;;4.6;3.3;;;;;;;;;;;;;
2019/07/13 03:02:01;;;;;;;4.3;2.4;;;;;;;;;;;;;
2019/07/13 03:04:30;;;;;;;3.1;2;;;;;;;;;;;;;
2019/07/13 03:06:53;;;;;;;4.1;2.1;;;;;;;;;;;;;
2019/07/13 03:09:20;;;;;;;5.4;2.1;;;;;;;;;;;;;
2019/07/13 03:11:48;;;;;;;3.8;2.3;;;;;;;;;;;;;
2019/07/13 03:14:11;;;;;;;2.9;2.2;;;;;;;;;;;;;
2019/07/13 03:16:36;;;;;;;3.4;2.3;;;;;;;;;;;;;
2019/07/13 03:19:02;;;;;;;4.2;2.4;;;;;;;;;;;;;
2019/07/13 03:21:28;;;;;;;5;2.7;;;;;;;;;;;;;
2019/07/13 03:23:57;;;;;;;3.5;2.4;;;;;;;;;;;;;
2019/07/13 03:26:16;;;;;;;5.1;3.3;;;;;;;;;;;;;
2019/07/13 03:28:43;;;;;;;6;3;;;;;;;;;;;;;
2019/07/13 03:31:10;;;;;;;3.3;2.8;;;;;;;;;;;;;
2019/07/13 03:33:34;;;;;;;7.1;3.1;;;;;;;;;;;;;
2019/07/13 03:35:59;;;;;;;4.5;2.7;;;;;;;;;;;;;
2019/07/13 03:38:25;;;;;;;5.4;2.8;;;;;;;;;;;;;
2019/07/13 03:40:50;;;;;;;4.6;2.7;;;;;;;;;;;;;
2019/07/13 03:43:19;;;;;;;5.3;2.7;;;;;;;;;;;;;
2019/07/13 03:45:40;;;;;;;4.3;2.5;;;;;;;;;;;;;
2019/07/13 03:48:05;;;;;;;3.6;2.3;;;;;;;;;;;;;
2019/07/13 03:50:29;;;;;;;4.5;2.4;;;;;;;;;;;;;
2019/07/13 03:52:58;;;;;;;4.8;2.9;;;;;;;;;;;;;
2019/07/13 03:55:22;;;;;;;4.9;2.3;;;;;;;;;;;;;
2019/07/13 03:57:46;;;;;;;4.4;2.5;;;;;;;;;;;;;
2019/07/13 04:10:52;;;;;;;6.1;2.7;;;;;;;14.67;84.64258;937.5154;;;;
2019/07/13 04:13:15;;;;;;;3.7;2.7;;;;;;;14.74;84.49219;937.4395;;;;
2019/07/13 04:15:44;;;;;;;4.7;2.7;;;;;;;14.65;84.81055;937.4242;;;;
2019/07/13 04:18:09;;;;;;;5.8;2.7;;;;;;;14.8;84.64258;937.4631;;;;
2019/07/13 04:20:33;;;;;;;5.4;2.8;;;;;;;14.67;84.45508;937.4265;;;;
2019/07/13 04:23:02;;;;;;;9.5;3.5;;;;;;;14.56;83.97461;937.4462;;;;
2019/07/13 04:25:27;;;;;;;6.7;2.7;;;;;;;14.63;83.59668;937.4387;;;;
2019/07/13 04:27:52;;;;;;;3.3;2.4;;;;;;;14.56;84.33203;937.5447;;;;
2019/07/13 04:30:23;;;;;;;4.2;2.6;;;;;;;14.54;84.40723;937.5089;;;;
2019/07/13 04:32:46;;;;;;;5;2.5;;;;;;;14.56;84.20508;937.4598;;;;
2019/07/13 04:35:09;;;;;;;3.4;2.4;;;;;;;14.64;84.42676;937.5581;;;;
2019/07/13 04:37:33;;;;;;;3.6;2.2;;;;;;;14.59;84.93848;937.5069;;;;
2019/07/13 04:39:59;;;;;;;4.4;2.4;;;;;;;14.69;84.58691;937.4841;;;;
2019/07/13 04:42:24;;;;;;;5.2;2.6;;;;;;;14.63;85.11816;937.4949;;;;
2019/07/13 04:44:48;;;;;;;5.3;2.7;;;;;;;14.85;84.9082;937.4653;;;;
2019/07/13 04:47:13;;;;;;;3.3;2.5;;;;;;;14.86;85.06934;937.5711;;;;
2019/07/13 04:49:38;;;;;;;2.7;2.3;;;;;;;14.69;85.45117;937.6122;;;;
2019/07/13 04:52:08;;;;;;;2.4;2.1;;;;;;;14.47;85.4668;937.5637;;;;
2019/07/13 04:54:31;;;;;;;3.8;2.2;;;;;;;14.59;85.22461;937.5926;;;;
2019/07/13 04:57:03;;;;;;;3.9;2;;;;;;;14.72;84.61523;937.6473;;;;
2019/07/13 04:59:31;;;;;;;4.9;2.4;;;;;;;14.92;83.97363;937.6588;;;;
2019/07/13 05:01:56;;;;;;;3.5;2.4;;;;;;;14.83;85.28516;937.613;;;;
2019/07/13 05:04:21;;;;;;;5.2;2.3;;;;;;;14.89;84.2002;937.6061;;;;
2019/07/13 05:06:48;;;;;;;3.8;2.5;;;;;;;14.95;83.91113;937.7106;;;;
2019/07/13 05:09:12;;;;;;;7.1;2.6;;;;;;;14.91;84.41113;937.707;;;;
2019/07/13 05:11:42;;;;;;;5.8;2.5;;;;;;;;;;;;;
2019/07/13 05:14:08;;;;;;;4.3;2.5;;;;;;;;;;;;;
2019/07/13 05:16:27;;;;;;;3.9;2.1;;;;;;;;;;;;;
2019/07/13 05:18:53;;;;;;;2.7;2.2;;;;;;;;;;;;;
2019/07/13 05:21:18;;;;;;;3.4;2;;;;;;;;;;;;;
2019/07/13 05:23:42;;;;;;;4.9;2.4;;;;;;;;;;;;;
2019/07/13 05:26:07;;;;;;;3.9;2.4;;;;;;;;;;;;;
2019/07/13 05:28:36;;;;;;;3.6;2;;;;;;;;;;;;;
2019/07/13 05:31:01;;;;;;;5.3;2.6;;;;;;;;;;;;;
2019/07/13 05:33:45;;;;;;;3.9;2.6;;;;;;;;;;;;;
2019/07/13 05:35:49;;;;;;;3.7;2.2;;;;;;;;;;;;;
2019/07/13 05:38:19;;;;;;;3.7;2.5;;;;;;;;;;;;;
2019/07/13 05:40:40;;;;;;;4.4;2.3;;;;;;;;;;;;;
2019/07/13 05:43:05;;;;;;;2.8;2.3;;;;;;;;;;;;;
2019/07/13 05:45:29;;;;;;;5.1;3;;;;;;;;;;;;;
2019/07/13 05:47:56;;;;;;;6.4;2.9;;;;;;;;;;;;;
2019/07/13 05:50:23;;;;;;;4.6;2.4;;;;;;;;;;;;;
2019/07/13 05:52:45;;;;;;;4.9;3;;;;;;;;;;;;;
2019/07/13 05:55:09;;;;;;;4;2.8;;;;;;;;;;;;;
2019/07/13 05:57:34;;;;;;;3;2;;;;;;;;;;;;;
2019/07/13 06:00:00;;;;;;;3.8;2;;;;;;;;;;;;;
2019/07/13 06:02:27;;;;;;;4.5;2.3;;;;;;;;;;;;;
2019/07/13 06:04:55;;;;;;;3.7;2.2;;;;;;;;;;;;;
2019/07/13 06:07:21;;;;;;;3.3;2.4;;;;;;;;;;;;;
2019/07/13 06:09:44;;;;;;;3.3;2.1;;;;;;;;;;;;;
2019/07/13 06:12:09;;;;;;;4.2;2.7;;;;;;;;;;;;;
2019/07/13 06:14:34;;;;;;;3.4;2.3;;;;;;;;;;;;;
2019/07/13 06:16:59;;;;;;;4.7;2.8;;;;;;;;;;;;;
2019/07/13 06:19:24;;;;;;;5.6;3.2;;;;;;;;;;;;;
2019/07/13 06:21:50;;;;;;;3.2;2.3;;;;;;;;;;;;;
2019/07/13 06:24:14;;;;;;;4.2;2.6;;;;;;;;;;;;;
2019/07/13 06:26:40;;;;;;;4.1;3;;;;;;;;;;;;;
2019/07/13 06:29:05;;;;;;;2.5;2.3;;;;;;;;;;;;;
2019/07/13 06:31:29;;;;;;;3.5;2.3;;;;;;;;;;;;;
2019/07/13 06:33:57;;;;;;;4.3;2.4;;;;;;;;;;;;;
2019/07/13 06:36:20;;;;;;;5.1;2.8;;;;;;;;;;;;;
2019/07/13 06:38:57;;;;;;;4.5;2.2;;;;;;;;;;;;;
2019/07/13 06:41:11;;;;;;;3.2;2.5;;;;;;;;;;;;;
2019/07/13 06:43:38;;;;;;;4;2.3;;;;;;;;;;;;;
2019/07/13 06:46:02;;;;;;;4.3;2.5;;;;;;;;;;;;;
2019/07/13 06:48:30;;;;;;;4.6;2.4;;;;;;;;;;;;;
2019/07/13 06:50:52;;;;;;;3.4;2;;;;;;;;;;;;;
2019/07/13 06:53:16;;;;;;;2.4;2;;;;;;;;;;;;;
2019/07/13 06:55:48;;;;;;;4.7;2.9;;;;;;;;;;;;;
2019/07/13 06:58:08;;;;;;;3;2.1;;;;;;;;;;;;;
2019/07/13 07:00:31;;;;;;;3.7;2;;;;;;;;;;;;;
2019/07/13 07:02:57;;;;;;;2.9;1.9;;;;;;;;;;;;;
2019/07/13 07:05:23;;;;;;;3.8;1.7;;;;;;;;;;;;;
2019/07/13 07:07:48;;;;;;;4;2;;;;;;;;;;;;;
2019/07/13 07:10:14;;;;;;;2.6;1.7;;;;;;;;;;;;;
2019/07/13 07:12:38;;;;;;;4.8;2.1;;;;;;;;;;;;;
2019/07/13 07:15:06;;;;;;;4.9;2.3;;;;;;;;;;;;;
2019/07/13 07:17:31;;;;;;;3.3;2.1;;;;;;;;;;;;;
2019/07/13 07:19:59;;;;;;;3.5;2.3;;;;;;;;;;;;;
2019/07/13 07:22:22;;;;;;;3;2;;;;;;;;;;;;;
2019/07/13 07:24:48;;;;;;;2.2;2;;;;;;;;;;;;;
2019/07/13 07:27:14;;;;;;;3.4;2.1;;;;;;;;;;;;;
2019/07/13 07:29:40;;;;;;;5.1;1.8;;;;;;;;;;;;;
2019/07/13 07:32:06;;;;;;;3.9;2.2;;;;;;;;;;;;;
2019/07/13 07:34:28;;;;;;;2.5;2;;;;;;;;;;;;;
2019/07/13 07:36:53;;;;;;;3.8;2;;;;;;;;;;;;;
2019/07/13 07:39:26;;;;;;;4.2;1.8;;;;;;;;;;;;;
2019/07/13 07:41:47;;;;;;;3.2;2.1;;;;;;;;;;;;;
2019/07/13 07:44:10;;;;;;;3.2;2.2;;;;;;;;;;;;;
2019/07/13 07:46:35;;;;;;;2.8;2.1;;;;;;;;;;;;;
2019/07/13 07:49:03;;;;;;;2.9;2.2;;;;;;;;;;;;;
2019/07/13 07:51:28;;;;;;;3.2;1.9;;;;;;;;;;;;;
2019/07/13 07:53:50;;;;;;;3.5;1.8;;;;;;;;;;;;;
2019/07/13 07:56:16;;;;;;;1.7;1.4;;;;;;;;;;;;;
2019/07/13 07:58:44;;;;;;;2.5;1.7;;;;;;;;;;;;;
2019/07/13 08:01:08;;;;;;;2.2;1.4;;;;;;;;;;;;;
2019/07/13 08:03:32;;;;;;;2.5;1.5;;;;;;;;;;;;;
2019/07/13 08:05:55;;;;;;;1.6;1.3;;;;;;;;;;;;;
2019/07/13 08:08:21;;;;;;;2.5;1.3;;;;;;;;;;;;;
2019/07/13 08:10:52;;;;;;;2.1;1.2;;;;;;;;;;;;;
2019/07/13 08:13:15;;;;;;;2.5;1.4;;;;;;;;;;;;;
2019/07/13 08:15:37;;;;;;;2.3;1.5;;;;;;;;;;;;;
2019/07/13 08:18:01;;;;;;;4.7;1.7;;;;;;;;;;;;;
2019/07/13 08:20:28;;;;;;;2.8;2;;;;;;;;;;;;;
2019/07/13 08:22:52;;;;;;;3.3;2.1;;;;;;;;;;;;;
2019/07/13 08:25:18;;;;;;;2.6;2;;;;;;;;;;;;;
2019/07/13 08:27:41;;;;;;;3;2;;;;;;;;;;;;;
2019/07/13 08:30:09;;;;;;;4.8;2.7;;;;;;;;;;;;;
2019/07/13 08:32:32;;;;;;;3;1.8;;;;;;;;;;;;;
2019/07/13 08:34:59;;;;;;;2.3;2;;;;;;;;;;;;;
2019/07/13 08:37:23;;;;;;;4.2;2.5;;;;;;;;;;;;;
2019/07/13 08:39:54;;;;;;;3.2;1.8;;;;;;;;;;;;;
2019/07/13 08:42:14;;;;;;;2.8;1.7;;;;;;;;;;;;;
2019/07/13 08:44:38;;;;;;;2.8;1.7;;;;;;;;;;;;;
2019/07/13 08:47:04;;;;;;;3.2;1.7;;;;;;;;;;;;;
2019/07/13 08:49:30;;;;;;;2.8;1.5;;;;;;;;;;;;;
2019/07/13 08:51:54;;;;;;;3.1;1.4;;;;;;;;;;;;;
2019/07/13 08:54:20;;;;;;;1.6;1.1;;;;;;;;;;;;;
2019/07/13 08:56:48;;;;;;;2.4;1.3;;;;;;;;;;;;;
2019/07/13 08:59:13;;;;;;;3;1.3;;;;;;;;;;;;;
2019/07/13 09:01:35;;;;;;;2.7;1.4;;;;;;;;;;;;;
2019/07/13 09:04:02;;;;;;;1.7;1.4;;;;;;;;;;;;;
2019/07/13 09:06:26;;;;;;;2;1.4;;;;;;;;;;;;;
2019/07/13 09:08:54;;;;;;;2.4;1.4;;;;;;;;;;;;;
2019/07/13 09:11:16;;;;;;;1.6;1.5;;;;;;;;;;;;;
2019/07/13 09:13:43;;;;;;;2.1;1.5;;;;;;;;;;;;;
2019/07/13 09:16:14;;;;;;;3.8;1.9;;;;;;;;;;;;;
2019/07/13 09:18:32;;;;;;;2.2;1.7;;;;;;;;;;;;;
2019/07/13 09:20:58;;;;;;;1.8;1.6;;;;;;;;;;;;;
2019/07/13 09:23:22;;;;;;;2.6;1.8;;;;;;;;;;;;;
2019/07/13 09:25:47;;;;;;;3.1;1.5;;;;;;;;;;;;;
2019/07/13 09:28:11;;;;;;;1.5;1.3;;;;;;;;;;;;;
2019/07/13 09:30:38;;;;;;;2;1.5;;;;;;;;;;;;;
2019/07/13 09:33:03;;;;;;;2.4;1.5;;;;;;;;;;;;;
2019/07/13 09:35:27;;;;;;;1.8;1.4;;;;;;;;;;;;;
2019/07/13 09:37:53;;;;;;;2.7;1.6;;;;;;;;;;;;;
2019/07/13 09:40:23;;;;;;;6.6;1.7;;;;;;;;;;;;;
2019/07/13 09:42:44;;;;;;;2.2;1.9;;;;;;;;;;;;;
2019/07/13 09:45:11;;;;;;;1.9;1.7;;;;;;;;;;;;;
2019/07/13 09:47:35;;;;;;;3.2;1.8;;;;;;;;;;;;;
2019/07/13 09:49:57;;;;;;;2.6;1.9;;;;;;;;;;;;;
2019/07/13 09:52:26;;;;;;;4.2;2.4;;;;;;;;;;;;;
2019/07/13 09:54:51;;;;;;;2.6;2;;;;;;;;;;;;;
2019/07/13 09:57:15;;;;;;;3.4;2;;;;;;;;;;;;;
2019/07/13 09:59:40;;;;;;;3.6;2;;;;;;;;;;;;;
2019/07/13 10:02:06;;;;;;;2.6;2.1;;;;;;;;;;;;;
2019/07/13 10:04:31;;;;;;;4.5;2.3;;;;;;;;;;;;;
2019/07/13 10:06:54;;;;;;;2.8;2.3;;;;;;;;;;;;;
2019/07/13 10:09:20;;;;;;;2.8;2.5;;;;;;;;;;;;;
2019/07/13 10:11:45;;;;;;;5.8;2.8;;;;;;;;;;;;;
2019/07/13 10:14:11;;;;;;;5.6;2.9;;;;;;;;;;;;;
2019/07/13 10:16:35;;;;;;;4.9;2.9;;;;;;;;;;;;;
2019/07/13 10:19:01;;;;;;;3;2.7;;;;;;;;;;;;;
2019/07/13 10:21:26;;;;;;;5.1;3;;;;;;;;;;;;;
2019/07/13 10:23:52;;;;;;;3.3;2.1;;;;;;;;;;;;;
2019/07/13 10:26:19;;;;;;;2.4;2.1;;;;;;;;;;;;;
2019/07/13 10:28:42;;;;;;;2.7;2;;;;;;;;;;;;;
2019/07/13 10:31:06;;;;;;;3.3;2.1;;;;;;;;;;;;;
2019/07/13 10:33:36;;;;;;;3.2;2.1;;;;;;;;;;;;;
2019/07/13 10:35:59;;;;;;;3;2.2;;;;;;;;;;;;;
2019/07/13 10:38:26;;;;;;;2.8;2;;;;;;;;;;;;;
2019/07/13 10:40:47;;;;;;;2.7;2.1;;;;;;;;;;;;;
2019/07/13 10:43:12;;;;;;;2.5;2;;;;;;;;;;;;;
2019/07/13 10:45:37;;;;;;;2.6;2.1;;;;;;;;;;;;;
2019/07/13 10:48:05;;;;;;;5.1;2.4;;;;;;;;;;;;;
2019/07/13 10:50:38;;;;;;;5.9;2.4;;;;;;;;;;;;;
2019/07/13 10:53:00;;;;;;;4.2;2.6;;;;;;;;;;;;;
2019/07/13 10:55:22;;;;;;;3.4;2.3;;;;;;;;;;;;;
2019/07/13 10:57:45;;;;;;;4.5;2.5;;;;;;;;;;;;;
2019/07/13 11:00:08;;;;;;;2.9;2.2;;;;;;;;;;;;;
2019/07/13 11:02:36;;;;;;;3.7;2.3;;;;;;;;;;;;;
2019/07/13 11:05:01;;;;;;;3.3;2.4;;;;;;;;;;;;;
2019/07/13 11:07:25;;;;;;;2.6;2.4;;;;;;;;;;;;;
2019/07/13 11:09:50;;;;;;;5.2;2.2;;;;;;;;;;;;;
2019/07/13 11:12:17;;;;;;;6.9;2.3;;;;;;;;;;;;;
2019/07/13 11:14:44;;;;;;;4.1;2.4;;;;;;;;;;;;;
2019/07/13 11:17:06;;;;;;;4.8;2.3;;;;;;;;;;;;;
2019/07/13 11:19:30;;;;;;;4.2;2.5;;;;;;;;;;;;;
2019/07/13 11:21:55;;;;;;;3.1;2.4;;;;;;;;;;;;;
2019/07/13 11:24:21;;;;;;;3;2.1;;;;;;;;;;;;;
2019/07/13 11:26:47;;;;;;;2.8;2.3;;;;;;;;;;;;;
2019/07/13 11:29:11;;;;;;;2.6;2.4;;;;;;;;;;;;;
2019/07/13 11:31:36;;;;;;;3.5;2.6;;;;;;;;;;;;;
2019/07/13 11:34:08;;;;;;;3.1;2.7;;;;;;;;;;;;;
2019/07/13 11:36:31;;;;;;;5.7;3.4;;;;;;;;;;;;;
2019/07/13 11:38:57;;;;;;;3.1;2.8;;;;;;;;;;;;;
2019/07/13 11:41:31;;;;;;;4;2.5;;;;;;;;;;;;;
2019/07/13 11:43:48;;;;;;;3.7;2.4;;;;;;;;;;;;;
2019/07/13 11:46:10;;;;;;;2.7;2.3;;;;;;;;;;;;;
2019/07/13 11:48:38;;;;;;;5.6;2.4;;;;;;;;;;;;;
2019/07/13 11:51:01;;;;;;;4.1;2.7;;;;;;;;;;;;;
2019/07/13 11:53:27;;;;;;;4.6;2.7;;;;;;;;;;;;;
2019/07/13 11:55:51;;;;;;;4.3;2.2;;;;;;;;;;;;;
2019/07/13 11:58:16;;;;;;;3.8;2.2;;;;;;;;;;;;;
2019/07/13 12:00:44;;;;;;;3.5;2.5;;;;;;;;;;;;;
2019/07/13 12:03:07;;;;;;;3.4;2.1;;;;;;;;;;;;;
2019/07/13 12:05:32;;;;;;;2.7;2.1;;;;;;;;;;;;;
2019/07/13 12:07:56;;;;;;;2.7;2.3;;;;;;;;;;;;;
2019/07/13 12:10:23;;;;;;;3.3;2.2;;;;;;;;;;;;;
2019/07/13 12:12:48;;;;;;;3.2;2;;;;;;;;;;;;;
2019/07/13 12:15:12;;;;;;;3.2;2.1;;;;;;;;;;;;;
2019/07/13 12:17:37;;;;;;;2.5;2;;;;;;;;;;;;;
2019/07/13 12:20:03;;;;;;;4;2.2;;;;;;;;;;;;;
2019/07/13 12:22:28;;;;;;;3.6;2;;;;;;;;;;;;;
2019/07/13 12:24:55;;;;;;;2.4;1.9;;;;;;;;;;;;;
2019/07/13 12:27:18;;;;;;;3.5;1.8;;;;;;;;;;;;;
2019/07/13 12:29:44;;;;;;;2.4;2.2;;;;;;;;;;;;;
2019/07/13 12:32:09;;;;;;;2.9;2.1;;;;;;;;;;;;;
2019/07/13 12:34:33;;;;;;;4.1;2.4;;;;;;;;;;;;;
2019/07/13 12:37:02;;;;;;;2.6;2.3;;;;;;;;;;;;;
2019/07/13 12:39:26;;;;;;;3.5;2.4;;;;;;;;;;;;;
2019/07/13 12:41:50;;;;;;;4;2.3;;;;;;;;;;;;;
2019/07/13 12:44:15;;;;;;;2.9;2.4;;;;;;;;;;;;;
2019/07/13 12:46:39;;;;;;;2.5;2.3;;;;;;;;;;;;;
2019/07/13 12:49:09;;;;;;;3;2.1;;;;;;;;;;;;;
2019/07/13 12:51:31;;;;;;;4.1;2.4;;;;;;;;;;;;;
2019/07/13 12:53:54;;;;;;;3.1;2.7;;;;;;;;;;;;;
2019/07/13 12:56:19;;;;;;;4;2.4;;;;;;;;;;;;;
2019/07/13 12:58:43;;;;;;;3.2;2.4;;;;;;;;;;;;;
2019/07/13 13:01:12;;;;;;;5.3;2.6;;;;;;;;;;;;;
2019/07/13 13:03:35;;;;;;;3.2;2.7;;;;;;;;;;;;;
2019/07/13 13:05:59;;;;;;;2.8;2.2;;;;;;;;;;;;;
2019/07/13 13:08:27;;;;;;;2.6;2.4;;;;;;;;;;;;;
2019/07/13 13:10:51;;;;;;;3.2;2.3;;;;;;;;;;;;;
2019/07/13 13:13:15;;;;;;;2.4;2;;;;;;;;;;;;;
2019/07/13 13:15:39;;;;;;;2.8;1.8;;;;;;;;;;;;;
2019/07/13 13:18:13;;;;;;;3.1;2;;;;;;;;;;;;;
2019/07/13 13:20:35;;;;;;;3.5;1.8;;;;;;;;;;;;;
2019/07/13 13:22:55;;;;;;;3.1;1.9;;;;;;;;;;;;;
2019/07/13 13:25:22;;;;;;;3.2;1.7;;;;;;;;;;;;;
2019/07/13 13:27:49;;;;;;;2.2;1.9;;;;;;;;;;;;;
2019/07/13 13:30:16;;;;;;;3.3;2.1;;;;;;;;;;;;;
2019/07/13 13:32:37;;;;;;;3.6;2.4;;;;;;;;;;;;;
2019/07/13 13:35:02;;;;;;;3.4;1.9;;;;;;;;;;;;;
2019/07/13 13:37:29;;;;;;;1.7;1.6;;;;;;;;;;;;;
2019/07/13 13:39:54;;;;;;;2.8;1.7;;;;;;;;;;;;;
2019/07/13 13:42:18;;;;;;;2.1;1.8;;;;;;;;;;;;;
2019/07/13 13:44:42;;;;;;;1.9;1.7;;;;;;;;;;;;;
2019/07/13 13:47:14;;;;;;;3.3;1.7;;;;;;;;;;;;;
2019/07/13 13:49:34;;;;;;;2.5;1.7;;;;;;;;;;;;;
2019/07/13 13:51:59;;;;;;;1.6;1.5;;;;;;;;;;;;;
2019/07/13 13:54:23;;;;;;;3.3;1.7;;;;;;;;;;;;;
2019/07/13 13:56:52;;;;;;;3.2;1.9;;;;;;;;;;;;;
2019/07/13 13:59:13;;;;;;;2.6;1.7;;;;;;;;;;;;;
2019/07/13 14:01:39;;;;;;;1.9;1.4;;;;;;;;;;;;;
2019/07/13 14:04:04;;;;;;;3;1.6;;;;;;;;;;;;;
2019/07/13 14:06:29;;;;;;;2.2;1.6;;;;;;;;;;;;;
2019/07/13 14:08:57;;;;;;;1.7;1.6;;;;;;;;;;;;;
2019/07/13 14:11:20;;;;;;;2;1.6;;;;;;;;;;;;;
2019/07/13 14:13:46;;;;;;;2.8;1.9;;;;;;;;;;;;;
2019/07/13 14:16:09;;;;;;;1.7;1.6;;;;;;;;;;;;;
2019/07/13 14:18:44;;;;;;;2.5;2.3;;;;;;;;;;;;;
2019/07/13 14:21:00;;;;;;;3.9;1.9;;;;;;;;;;;;;
2019/07/13 14:23:26;;;;;;;3.6;1.9;;;;;;;;;;;;;
2019/07/13 14:25:53;;;;;;;5.2;2.4;;;;;;;;;;;;;
2019/07/13 14:28:15;;;;;;;2.8;1.9;;;;;;;;;;;;;
2019/07/13 14:30:43;;;;;;;2.3;2;;;;;;;;;;;;;
2019/07/13 14:33:06;;;;;;;3.1;1.7;;;;;;;;;;;;;
2019/07/13 14:35:32;;;;;;;7.4;3.1;;;;;;;;;;;;;
2019/07/13 14:37:58;;;;;;;2.9;2.2;;;;;;;;;;;;;
2019/07/13 14:40:22;;;;;;;3.1;1.9;;;;;;;;;;;;;
2019/07/13 14:42:49;;;;;;;3.9;2.4;;;;;;;;;;;;;
2019/07/13 14:45:12;;;;;;;4.3;2.4;;;;;;;;;;;;;
2019/07/13 14:47:39;;;;;;;2.5;2.1;;;;;;;;;;;;;
2019/07/13 14:50:04;;;;;;;2.5;2.1;;;;;;;;;;;;;
2019/07/13 14:52:29;;;;;;;2.7;2;;;;;;;;;;;;;
2019/07/13 14:54:53;;;;;;;3.7;2;;;;;;;;;;;;;
2019/07/13 14:57:21;;;;;;;3.2;2;;;;;;;;;;;;;
2019/07/13 14:59:45;;;;;;;2.9;2;;;;;;;;;;;;;
2019/07/13 15:02:11;;;;;;;2.2;2;;;;;;;;;;;;;
2019/07/13 15:04:35;;;;;;;3.2;2;;;;;;;;;;;;;
2019/07/13 15:06:59;;;;;;;3.3;1.9;;;;;;;;;;;;;
2019/07/13 15:09:25;;;;;;;2.3;2;;;;;;;;;;;;;
2019/07/13 15:11:51;;;;;;;3.5;2;;;;;;;;;;;;;
2019/07/13 15:14:17;;;;;;;2.3;2.1;;;;;;;;;;;;;
2019/07/13 15:16:40;;;;;;;3.1;2.1;;;;;;;;;;;;;
2019/07/13 15:19:05;;;;;;;3.9;2.3;;;;;;;;;;;;;
2019/07/13 15:21:31;;;;;;;2.7;2.3;;;;;;;;;;;;;
2019/07/13 15:23:58;;;;;;;2.7;2.4;;;;;;;;;;;;;
2019/07/13 15:26:22;;;;;;;3.2;2.2;;;;;;;;;;;;;
2019/07/13 15:28:46;;;;;;;2.6;2.2;;;;;;;;;;;;;
2019/07/13 15:31:12;;;;;;;3.3;2.1;;;;;;;;;;;;;
2019/07/13 15:33:39;;;;;;;4;2.2;;;;;;;;;;;;;
2019/07/13 15:36:01;;;;;;;2.9;2.1;;;;;;;;;;;;;
2019/07/13 15:38:27;;;;;;;3.2;2.3;;;;;;;;;;;;;
2019/07/13 15:40:52;;;;;;;3.2;2.1;;;;;;;;;;;;;
2019/07/13 15:43:23;;;;;;;4.2;2.2;;;;;;;;;;;;;
2019/07/13 15:45:43;;;;;;;3;2.3;;;;;;;;;;;;;
2019/07/13 15:48:11;;;;;;;2.3;2.1;;;;;;;;;;;;;
2019/07/13 15:50:32;;;;;;;3;2.2;;;;;;;;;;;;;
2019/07/13 15:53:01;;;;;;;2.7;2.2;;;;;;;;;;;;;
2019/07/13 15:55:24;;;;;;;2.5;2.3;;;;;;;;;;;;;
2019/07/13 15:57:49;;;;;;;3.2;2.5;;;;;;;;;;;;;
2019/07/13 16:00:16;;;;;;;3.3;2.4;;;;;;;;;;;;;
2019/07/13 16:02:39;;;;;;;4.2;2.5;;;;;;;;;;;;;
2019/07/13 16:05:06;;;;;;;4.1;2.8;;;;;;;;;;;;;
2019/07/13 16:07:30;;;;;;;4.7;2.5;;;;;;;;;;;;;
2019/07/13 16:09:54;;;;;;;4.2;2.3;;;;;;;;;;;;;
2019/07/13 16:12:20;;;;;;;3.2;2.4;;;;;;;;;;;;;
2019/07/13 16:14:49;;;;;;;3.9;2.5;;;;;;;;;;;;;
2019/07/13 16:17:10;;;;;;;3.5;2.5;;;;;;;;;;;;;
2019/07/13 16:19:37;;;;;;;3.8;2.4;;;;;;;;;;;;;
2019/07/13 16:22:00;;;;;;;6.2;2.6;;;;;;;;;;;;;
2019/07/13 16:24:25;;;;;;;3.2;2.5;;;;;;;;;;;;;
2019/07/13 16:26:50;;;;;;;2.9;2.4;;;;;;;;;;;;;
2019/07/13 16:29:16;;;;;;;4.9;2.6;;;;;;;;;;;;;
2019/07/13 16:31:42;;;;;;;3.6;2.4;;;;;;;;;;;;;
2019/07/13 16:34:08;;;;;;;2.6;2.3;;;;;;;;;;;;;
2019/07/13 16:36:31;;;;;;;3.1;2.3;;;;;;;;;;;;;
2019/07/13 16:38:57;;;;;;;2.8;2.4;;;;;;;;;;;;;
2019/07/13 16:41:22;;;;;;;3.7;2.6;;;;;;;;;;;;;
2019/07/13 16:43:50;;;;;;;3.8;2.8;;;;;;;;;;;;;
2019/07/13 16:46:15;;;;;;;5.4;3;;;;;;;;;;;;;
2019/07/13 16:48:37;;;;;;;4.6;2.6;;;;;;;;;;;;;
2019/07/13 16:51:02;;;;;;;3.8;2.4;;;;;;;;;;;;;
2019/07/13 16:53:30;;;;;;;3.4;2.7;;;;;;;;;;;;;
2019/07/13 16:55:53;;;;;;;3.3;2.5;;;;;;;;;;;;;
2019/07/13 16:58:20;;;;;;;3.7;2.7;;;;;;;;;;;;;
2019/07/13 17:00:44;;;;;;;3.5;2.9;;;;;;;;;;;;;
2019/07/13 17:03:11;;;;;;;3.4;2.8;;;;;;;;;;;;;
2019/07/13 17:05:34;;;;;;;3;2.7;;;;;;;;;;;;;
2019/07/13 17:08:00;;;;;;;5.5;2.8;;;;;;;;;;;;;
2019/07/13 17:10:26;;;;;;;4;3.2;;;;;;;;;;;;;
2019/07/13 17:12:52;;;;;;;3.3;3;;;;;;;;;;;;;
2019/07/13 17:15:18;;;;;;;5.6;3.4;;;;;;;;;;;;;
2019/07/13 17:17:41;;;;;;;6.1;3.4;;;;;;;;;;;;;
2019/07/13 17:20:05;;;;;;;3.3;3;;;;;;;;;;;;;
2019/07/13 17:22:33;;;;;;;3.9;3.3;;;;;;;;;;;;;
2019/07/13 17:24:56;;;;;;;6.5;3.4;;;;;;;;;;;;;
2019/07/13 17:27:21;;;;;;;5.3;3.3;;;;;;;;;;;;;
2019/07/13 17:29:47;;;;;;;5;2.9;;;;;;;;;;;;;
2019/07/13 17:32:12;;;;;;;4.3;3.2;;;;;;;;;;;;;
2019/07/13 17:34:38;;;;;;;5;2.9;;;;;;;;;;;;;
2019/07/13 17:37:04;;;;;;;5;3.3;;;;;;;;;;;;;
2019/07/13 17:39:27;;;;;;;4.7;3;;;;;;;;;;;;;
2019/07/13 17:41:53;;;;;;;4.3;3;;;;;;;;;;;;;
2019/07/13 17:44:20;;;;;;;5.9;3.6;;;;;;;;;;;;;
2019/07/13 17:46:44;;;;;;;6.9;3.1;;;;;;;;;;;;;
2019/07/13 17:49:10;;;;;;;7.1;3;;;;;;;;;;;;;
2019/07/13 17:51:36;;;;;;;5.3;3.3;;;;;;;;;;;;;
2019/07/13 17:54:04;;;;;;;7.1;3.2;;;;;;;;;;;;;
2019/07/13 17:56:26;;;;;;;4.8;3.2;;;;;;;;;;;;;
2019/07/13 17:58:52;;;;;;;7.4;3.5;;;;;;;;;;;;;
2019/07/13 18:01:16;;;;;;;6.2;3.6;;;;;;;;;;;;;
2019/07/13 18:03:42;;;;;;;9.9;3.7;;;;;;;;;;;;;
2019/07/13 18:06:06;;;;;;;5.8;3.4;;;;;;;;;;;;;
2019/07/13 18:08:32;;;;;;;3.9;3.1;;;;;;;;;;;;;
2019/07/13 18:10:56;;;;;;;4;3.3;;;;;;;;;;;;;
2019/07/13 18:13:25;;;;;;;5.6;3.6;;;;;;;;;;;;;
2019/07/13 18:15:47;;;;;;;5.1;3.5;;;;;;;;;;;;;
2019/07/13 18:18:12;;;;;;;7.3;3.5;;;;;;;;;;;;;
2019/07/13 18:20:38;;;;;;;6.3;3.8;;;;;;;;;;;;;
2019/07/13 18:23:05;;;;;;;8.9;3.8;;;;;;;;;;;;;
2019/07/13 18:25:29;;;;;;;7.1;3.9;;;;;;;;;;;;;
2019/07/13 18:27:53;;;;;;;5.5;3.8;;;;;;;;;;;;;
2019/07/13 18:30:21;;;;;;;5.2;4.4;;;;;;;;;;;;;
2019/07/13 18:32:45;;;;;;;6.4;3.9;;;;;;;;;;;;;
2019/07/13 18:35:09;;;;;;;5.6;3.9;;;;;;;;;;;;;
2019/07/13 18:37:34;;;;;;;5.4;4.1;;;;;;;;;;;;;
2019/07/13 18:39:59;;;;;;;5.5;4.1;;;;;;;;;;;;;
2019/07/13 18:42:26;;;;;;;5.9;3.8;;;;;;;;;;;;;
2019/07/13 18:44:49;;;;;;;4.7;3.7;;;;;;;;;;;;;
2019/07/13 18:47:14;;;;;;;6.3;3.5;;;;;;;;;;;;;
2019/07/13 18:49:39;;;;;;;4.4;3.1;;;;;;;;;;;;;
2019/07/13 18:52:05;;;;;;;3.8;3.2;;;;;;;;;;;;;
2019/07/13 18:54:29;;;;;;;8.2;4.1;;;;;;;;;;;;;
2019/07/13 18:56:55;;;;;;;4.8;3.7;;;;;;;;;;;;;
2019/07/13 18:59:19;;;;;;;6.4;3.6;;;;;;;;;;;;;
2019/07/13 19:01:52;;;;;;;4.1;3.3;;;;;;;;;;;;;
2019/07/13 19:04:12;;;;;;;4.2;3.1;;;;;;;;;;;;;
2019/07/13 19:06:35;;;;;;;7.7;4.1;;;;;;;;;;;;;
2019/07/13 19:09:01;;;;;;;5.9;4;;;;;;;;;;;;;
2019/07/13 19:11:34;;;;;;;5.7;4.1;;;;;;;;;;;;;
2019/07/13 19:13:54;;;;;;;6.3;4;;;;;;;;;;;;;
2019/07/13 19:16:15;;;;;;;6.2;3.8;;;;;;;;;;;;;
2019/07/13 19:18:41;;;;;;;5.9;3.7;;;;;;;;;;;;;
2019/07/13 19:21:09;;;;;;;6.5;3.6;;;;;;;;;;;;;
2019/07/13 19:23:31;;;;;;;4.5;3.7;;;;;;;;;;;;;
2019/07/13 19:25:57;;;;;;;5;3.8;;;;;;;;;;;;;
2019/07/13 19:28:22;;;;;;;4.9;3.5;;;;;;;;;;;;;
2019/07/13 19:30:55;;;;;;;4.7;3.9;;;;;;;;;;;;;
2019/07/13 19:33:13;;;;;;;5.6;3.8;;;;;;;;;;;;;
2019/07/13 19:35:39;;;;;;;4.5;3.7;;;;;;;;;;;;;
2019/07/13 19:41:05;;;;;;;6.1;3.8;;;;;;;;;;;;;
2019/07/13 19:43:30;;;;;;;6.5;4.1;;;;;;;;;;;;;
2019/07/13 19:45:56;;;;;;;4.5;3.5;;;;;;;;;;;;;
2019/07/13 19:48:21;;;;;;;7.2;3.9;;;;;;;;;;;;;
2019/07/13 19:50:45;;;;;;;5.1;3.7;;;;;;;;;;;;;
2019/07/13 19:53:09;;;;;;;5.9;4;;;;;;;;;;;;;
2019/07/13 19:55:41;;;;;;;5.2;4.5;;;;;;;;;;;;;
2019/07/13 19:58:06;;;;;;;5.4;4.2;;;;;;;;;;;;;
2019/07/13 20:00:32;;;;;;;5.4;4;;;;;;;;;;;;;
2019/07/13 20:03:00;;;;;;;6.2;4.6;;;;;;;;;;;;;
2019/07/13 20:05:22;;;;;;;5.3;3.8;;;;;;;;;;;;;
2019/07/13 20:07:46;;;;;;;5.5;3.9;;;;;;;;;;;;;
2019/07/13 20:10:14;;;;;;;5.3;4.1;;;;;;;;;;;;;
2019/07/13 20:12:38;;;;;;;5.9;3.9;;;;;;;;;;;;;
2019/07/13 20:15:01;;;;;;;6.7;4;;;;;;;;;;;;;
2019/07/13 20:17:27;;;;;;;8.3;4.3;;;;;;;;;;;;;
2019/07/13 20:19:55;;;;;;;7.8;4.3;;;;;;;;;;;;;